sensor_id;sensor_type;location;lat;lon;timestamp;P1;durP1;ratioP1;P2;durP2;ratioP2
40635;SDS011;26642;55.766;37.828;2023-06-19T00:02:11;2.83;;;2.20;;
40635;SDS011;26642;55.766;37.828;2023-06-19T00:04:37;2.75;;;2.20;;
40635;SDS011;26642;55.766;37.828;2023-06-19T00:07:03;4.82;;;2.50;;
40635;SDS011;26642;55.766;37.828;2023-06-19T00:09:29;3.92;;;2.30;;
40635;SDS011;26642;55.766;37.828;2023-06-19T00:11:55;4.75;;;2.70;;
40635;SDS011;26642;55.766;37.828;2023-06-19T00:14:23;5.72;;;2.92;;
40635;SDS011;26642;55.766;37.828;2023-06-19T00:16:48;4.03;;;3.20;;
40635;SDS011;26642;55.766;37.828;2023-06-19T00:19:16;7.28;;;2.80;;
40635;SDS011;26642;55.766;37.828;2023-06-19T00:21:42;4.82;;;2.90;;
40635;SDS011;26642;55.766;37.828;2023-06-19T00:24:08;5.05;;;2.95;;
40635;SDS011;26642;55.766;37.828;2023-06-19T00:26:35;5.15;;;2.72;;
40635;SDS011;26642;55.766;37.828;2023-06-19T00:29:01;3.75;;;2.83;;
40635;SDS011;26642;55.766;37.828;2023-06-19T00:31:27;3.35;;;2.40;;
40635;SDS011;26642;55.766;37.828;2023-06-19T00:33:54;6.15;;;2.17;;
40635;SDS011;26642;55.766;37.828;2023-06-19T00:36:19;4.75;;;2.65;;
40635;SDS011;26642;55.766;37.828;2023-06-19T00:38:47;4.78;;;2.88;;
40635;SDS011;26642;55.766;37.828;2023-06-19T00:41:16;4.65;;;2.63;;
40635;SDS011;26642;55.766;37.828;2023-06-19T00:43:42;4.47;;;2.78;;
40635;SDS011;26642;55.766;37.828;2023-06-19T00:46:08;5.00;;;2.70;;
40635;SDS011;26642;55.766;37.828;2023-06-19T00:48:35;3.67;;;2.50;;
40635;SDS011;26642;55.766;37.828;2023-06-19T00:51:01;5.45;;;2.63;;
40635;SDS011;26642;55.766;37.828;2023-06-19T00:53:28;4.32;;;2.30;;
40635;SDS011;26642;55.766;37.828;2023-06-19T00:55:56;3.38;;;2.30;;
40635;SDS011;26642;55.766;37.828;2023-06-19T00:58:22;3.70;;;2.40;;
40635;SDS011;26642;55.766;37.828;2023-06-19T01:00:49;4.35;;;2.50;;
40635;SDS011;26642;55.766;37.828;2023-06-19T01:03:15;4.32;;;2.40;;
40635;SDS011;26642;55.766;37.828;2023-06-19T01:05:42;3.85;;;2.30;;
40635;SDS011;26642;55.766;37.828;2023-06-19T01:10:44;2.63;;;2.20;;
40635;SDS011;26642;55.766;37.828;2023-06-19T01:13:17;3.65;;;2.08;;
40635;SDS011;26642;55.766;37.828;2023-06-19T01:15:49;3.00;;;2.10;;
40635;SDS011;26642;55.766;37.828;2023-06-19T01:18:15;3.38;;;2.17;;
40635;SDS011;26642;55.766;37.828;2023-06-19T01:20:43;3.63;;;2.20;;
40635;SDS011;26642;55.766;37.828;2023-06-19T01:23:09;3.40;;;2.22;;
40635;SDS011;26642;55.766;37.828;2023-06-19T01:25:36;3.88;;;2.30;;
40635;SDS011;26642;55.766;37.828;2023-06-19T01:28:04;5.32;;;2.50;;
40635;SDS011;26642;55.766;37.828;2023-06-19T01:30:34;7.47;;;2.30;;
40635;SDS011;26642;55.766;37.828;2023-06-19T01:33:21;3.00;;;2.47;;
40635;SDS011;26642;55.766;37.828;2023-06-19T01:35:51;2.40;;;2.20;;
40635;SDS011;26642;55.766;37.828;2023-06-19T01:38:19;4.75;;;2.67;;
40635;SDS011;26642;55.766;37.828;2023-06-19T01:40:50;4.32;;;2.55;;
40635;SDS011;26642;55.766;37.828;2023-06-19T01:43:19;3.00;;;2.03;;
40635;SDS011;26642;55.766;37.828;2023-06-19T01:45:45;3.15;;;2.55;;
40635;SDS011;26642;55.766;37.828;2023-06-19T01:48:11;3.95;;;2.30;;
40635;SDS011;26642;55.766;37.828;2023-06-19T01:50:40;3.00;;;2.10;;
40635;SDS011;26642;55.766;37.828;2023-06-19T01:53:15;6.80;;;1.92;;
40635;SDS011;26642;55.766;37.828;2023-06-19T01:55:41;2.75;;;2.10;;
40635;SDS011;26642;55.766;37.828;2023-06-19T01:58:08;3.22;;;2.40;;
40635;SDS011;26642;55.766;37.828;2023-06-19T02:00:34;3.15;;;1.90;;
40635;SDS011;26642;55.766;37.828;2023-06-19T02:03:00;2.78;;;2.17;;
40635;SDS011;26642;55.766;37.828;2023-06-19T02:05:27;6.03;;;2.40;;
40635;SDS011;26642;55.766;37.828;2023-06-19T02:07:53;2.20;;;2.00;;
40635;SDS011;26642;55.766;37.828;2023-06-19T02:10:19;4.38;;;2.47;;
40635;SDS011;26642;55.766;37.828;2023-06-19T02:12:45;3.17;;;2.10;;
40635;SDS011;26642;55.766;37.828;2023-06-19T02:15:11;4.45;;;2.17;;
40635;SDS011;26642;55.766;37.828;2023-06-19T02:17:37;5.82;;;2.15;;
40635;SDS011;26642;55.766;37.828;2023-06-19T02:20:03;4.20;;;2.00;;
40635;SDS011;26642;55.766;37.828;2023-06-19T02:22:34;2.78;;;2.00;;
40635;SDS011;26642;55.766;37.828;2023-06-19T02:25:00;2.30;;;2.10;;
40635;SDS011;26642;55.766;37.828;2023-06-19T02:27:26;4.68;;;2.30;;
40635;SDS011;26642;55.766;37.828;2023-06-19T02:29:52;4.13;;;2.00;;
40635;SDS011;26642;55.766;37.828;2023-06-19T02:32:18;2.50;;;1.92;;
40635;SDS011;26642;55.766;37.828;2023-06-19T02:34:44;4.60;;;2.10;;
40635;SDS011;26642;55.766;37.828;2023-06-19T02:37:10;5.53;;;2.17;;
40635;SDS011;26642;55.766;37.828;2023-06-19T02:39:36;2.58;;;2.00;;
40635;SDS011;26642;55.766;37.828;2023-06-19T02:42:03;3.22;;;2.58;;
40635;SDS011;26642;55.766;37.828;2023-06-19T02:44:29;2.53;;;2.30;;
40635;SDS011;26642;55.766;37.828;2023-06-19T02:46:55;2.92;;;2.13;;
40635;SDS011;26642;55.766;37.828;2023-06-19T02:49:21;3.78;;;2.30;;
40635;SDS011;26642;55.766;37.828;2023-06-19T02:51:47;5.50;;;2.10;;
40635;SDS011;26642;55.766;37.828;2023-06-19T02:54:13;3.72;;;2.28;;
40635;SDS011;26642;55.766;37.828;2023-06-19T02:56:39;2.90;;;2.47;;
40635;SDS011;26642;55.766;37.828;2023-06-19T02:59:05;6.88;;;2.42;;
40635;SDS011;26642;55.766;37.828;2023-06-19T03:01:31;3.95;;;2.13;;
40635;SDS011;26642;55.766;37.828;2023-06-19T03:03:57;4.88;;;2.47;;
40635;SDS011;26642;55.766;37.828;2023-06-19T03:06:23;4.53;;;2.38;;
40635;SDS011;26642;55.766;37.828;2023-06-19T03:08:51;4.68;;;2.28;;
40635;SDS011;26642;55.766;37.828;2023-06-19T03:11:17;3.20;;;2.40;;
40635;SDS011;26642;55.766;37.828;2023-06-19T03:16:14;4.82;;;2.15;;
40635;SDS011;26642;55.766;37.828;2023-06-19T03:18:41;4.22;;;2.25;;
40635;SDS011;26642;55.766;37.828;2023-06-19T03:21:10;3.65;;;2.00;;
40635;SDS011;26642;55.766;37.828;2023-06-19T03:23:36;4.65;;;2.60;;
40635;SDS011;26642;55.766;37.828;2023-06-19T03:26:03;5.97;;;2.50;;
40635;SDS011;26642;55.766;37.828;2023-06-19T03:28:30;4.10;;;2.10;;
40635;SDS011;26642;55.766;37.828;2023-06-19T03:30:57;5.68;;;2.42;;
40635;SDS011;26642;55.766;37.828;2023-06-19T03:33:24;5.65;;;2.80;;
40635;SDS011;26642;55.766;37.828;2023-06-19T03:35:51;3.22;;;2.00;;
40635;SDS011;26642;55.766;37.828;2023-06-19T03:38:27;3.92;;;2.50;;
40635;SDS011;26642;55.766;37.828;2023-06-19T03:40:53;4.93;;;2.60;;
40635;SDS011;26642;55.766;37.828;2023-06-19T03:43:20;5.35;;;2.70;;
40635;SDS011;26642;55.766;37.828;2023-06-19T03:45:46;4.22;;;1.95;;
40635;SDS011;26642;55.766;37.828;2023-06-19T03:48:12;3.28;;;2.10;;
40635;SDS011;26642;55.766;37.828;2023-06-19T03:50:38;4.70;;;2.08;;
40635;SDS011;26642;55.766;37.828;2023-06-19T03:53:06;3.58;;;2.03;;
40635;SDS011;26642;55.766;37.828;2023-06-19T03:55:32;3.22;;;1.92;;
40635;SDS011;26642;55.766;37.828;2023-06-19T03:57:58;3.50;;;2.22;;
40635;SDS011;26642;55.766;37.828;2023-06-19T04:00:24;3.50;;;2.35;;
40635;SDS011;26642;55.766;37.828;2023-06-19T04:02:50;4.55;;;2.33;;
40635;SDS011;26642;55.766;37.828;2023-06-19T04:05:18;3.25;;;1.95;;
40635;SDS011;26642;55.766;37.828;2023-06-19T04:07:45;3.75;;;2.03;;
40635;SDS011;26642;55.766;37.828;2023-06-19T04:10:13;2.78;;;1.80;;
40635;SDS011;26642;55.766;37.828;2023-06-19T04:12:39;4.13;;;1.90;;
40635;SDS011;26642;55.766;37.828;2023-06-19T04:15:09;3.35;;;1.88;;
40635;SDS011;26642;55.766;37.828;2023-06-19T04:17:35;3.08;;;1.83;;
40635;SDS011;26642;55.766;37.828;2023-06-19T04:20:02;2.67;;;1.85;;
40635;SDS011;26642;55.766;37.828;2023-06-19T04:22:36;3.63;;;1.60;;
40635;SDS011;26642;55.766;37.828;2023-06-19T04:25:04;3.20;;;1.95;;
40635;SDS011;26642;55.766;37.828;2023-06-19T04:27:34;2.88;;;1.70;;
40635;SDS011;26642;55.766;37.828;2023-06-19T04:30:00;2.08;;;1.58;;
40635;SDS011;26642;55.766;37.828;2023-06-19T04:32:28;4.40;;;2.05;;
40635;SDS011;26642;55.766;37.828;2023-06-19T04:34:54;2.92;;;1.98;;
40635;SDS011;26642;55.766;37.828;2023-06-19T04:37:19;3.63;;;2.03;;
40635;SDS011;26642;55.766;37.828;2023-06-19T04:39:46;3.65;;;1.77;;
40635;SDS011;26642;55.766;37.828;2023-06-19T04:42:16;3.42;;;1.70;;
40635;SDS011;26642;55.766;37.828;2023-06-19T04:44:47;2.13;;;1.67;;
40635;SDS011;26642;55.766;37.828;2023-06-19T04:47:16;5.60;;;2.40;;
40635;SDS011;26642;55.766;37.828;2023-06-19T04:49:42;4.07;;;1.80;;
40635;SDS011;26642;55.766;37.828;2023-06-19T04:52:08;4.85;;;2.25;;
40635;SDS011;26642;55.766;37.828;2023-06-19T04:54:34;2.28;;;1.60;;
40635;SDS011;26642;55.766;37.828;2023-06-19T04:57:00;4.35;;;2.03;;
40635;SDS011;26642;55.766;37.828;2023-06-19T04:59:27;4.28;;;1.70;;
40635;SDS011;26642;55.766;37.828;2023-06-19T05:01:53;3.70;;;1.83;;
40635;SDS011;26642;55.766;37.828;2023-06-19T05:04:19;2.85;;;1.80;;
40635;SDS011;26642;55.766;37.828;2023-06-19T05:06:47;6.18;;;2.00;;
40635;SDS011;26642;55.766;37.828;2023-06-19T05:09:14;3.38;;;1.67;;
40635;SDS011;26642;55.766;37.828;2023-06-19T05:11:40;4.00;;;1.63;;
40635;SDS011;26642;55.766;37.828;2023-06-19T05:14:06;3.17;;;1.70;;
40635;SDS011;26642;55.766;37.828;2023-06-19T05:16:33;4.43;;;1.42;;
40635;SDS011;26642;55.766;37.828;2023-06-19T05:18:59;2.60;;;1.75;;
40635;SDS011;26642;55.766;37.828;2023-06-19T05:21:25;3.28;;;1.77;;
40635;SDS011;26642;55.766;37.828;2023-06-19T05:23:51;3.10;;;1.60;;
40635;SDS011;26642;55.766;37.828;2023-06-19T05:26:18;3.28;;;1.42;;
40635;SDS011;26642;55.766;37.828;2023-06-19T05:28:45;3.47;;;1.50;;
40635;SDS011;26642;55.766;37.828;2023-06-19T05:31:11;4.78;;;1.50;;
40635;SDS011;26642;55.766;37.828;2023-06-19T05:33:37;1.65;;;1.55;;
40635;SDS011;26642;55.766;37.828;2023-06-19T05:36:03;1.85;;;1.45;;
40635;SDS011;26642;55.766;37.828;2023-06-19T05:38:29;2.05;;;1.38;;
40635;SDS011;26642;55.766;37.828;2023-06-19T05:40:56;5.50;;;1.45;;
40635;SDS011;26642;55.766;37.828;2023-06-19T05:43:22;2.55;;;1.30;;
40635;SDS011;26642;55.766;37.828;2023-06-19T05:45:50;1.63;;;1.50;;
40635;SDS011;26642;55.766;37.828;2023-06-19T05:48:16;3.08;;;1.70;;
40635;SDS011;26642;55.766;37.828;2023-06-19T05:50:42;4.43;;;1.65;;
40635;SDS011;26642;55.766;37.828;2023-06-19T05:53:08;3.83;;;1.42;;
40635;SDS011;26642;55.766;37.828;2023-06-19T05:55:34;4.10;;;1.63;;
40635;SDS011;26642;55.766;37.828;2023-06-19T05:58:00;2.83;;;1.30;;
40635;SDS011;26642;55.766;37.828;2023-06-19T06:00:27;2.88;;;1.50;;
40635;SDS011;26642;55.766;37.828;2023-06-19T06:02:56;1.95;;;1.42;;
40635;SDS011;26642;55.766;37.828;2023-06-19T06:05:25;3.63;;;1.50;;
40635;SDS011;26642;55.766;37.828;2023-06-19T06:07:51;1.92;;;1.25;;
40635;SDS011;26642;55.766;37.828;2023-06-19T06:10:22;5.72;;;1.60;;
40635;SDS011;26642;55.766;37.828;2023-06-19T06:12:49;1.95;;;1.40;;
40635;SDS011;26642;55.766;37.828;2023-06-19T06:15:15;2.13;;;1.25;;
40635;SDS011;26642;55.766;37.828;2023-06-19T06:17:41;4.30;;;1.40;;
40635;SDS011;26642;55.766;37.828;2023-06-19T06:20:08;3.65;;;1.35;;
40635;SDS011;26642;55.766;37.828;2023-06-19T06:22:38;5.80;;;1.63;;
40635;SDS011;26642;55.766;37.828;2023-06-19T06:25:05;3.45;;;1.50;;
40635;SDS011;26642;55.766;37.828;2023-06-19T06:27:32;3.97;;;1.30;;
40635;SDS011;26642;55.766;37.828;2023-06-19T06:29:58;1.85;;;1.40;;
40635;SDS011;26642;55.766;37.828;2023-06-19T06:32:24;2.03;;;1.70;;
40635;SDS011;26642;55.766;37.828;2023-06-19T06:34:51;2.95;;;1.40;;
40635;SDS011;26642;55.766;37.828;2023-06-19T06:37:17;2.38;;;1.55;;
40635;SDS011;26642;55.766;37.828;2023-06-19T06:39:48;1.52;;;1.35;;
40635;SDS011;26642;55.766;37.828;2023-06-19T06:42:17;3.10;;;1.67;;
40635;SDS011;26642;55.766;37.828;2023-06-19T06:44:44;1.42;;;1.30;;
40635;SDS011;26642;55.766;37.828;2023-06-19T06:47:10;4.28;;;1.60;;
40635;SDS011;26642;55.766;37.828;2023-06-19T06:49:36;2.85;;;1.42;;
40635;SDS011;26642;55.766;37.828;2023-06-19T06:52:03;2.08;;;1.40;;
40635;SDS011;26642;55.766;37.828;2023-06-19T06:54:30;2.33;;;1.15;;
40635;SDS011;26642;55.766;37.828;2023-06-19T06:56:56;1.45;;;1.20;;
40635;SDS011;26642;55.766;37.828;2023-06-19T06:59:26;1.35;;;1.20;;
40635;SDS011;26642;55.766;37.828;2023-06-19T07:01:53;2.45;;;1.38;;
40635;SDS011;26642;55.766;37.828;2023-06-19T07:04:20;4.93;;;1.58;;
40635;SDS011;26642;55.766;37.828;2023-06-19T07:06:46;2.72;;;2.03;;
40635;SDS011;26642;55.766;37.828;2023-06-19T07:09:12;2.88;;;1.70;;
40635;SDS011;26642;55.766;37.828;2023-06-19T07:11:38;3.45;;;1.50;;
40635;SDS011;26642;55.766;37.828;2023-06-19T07:14:04;2.00;;;1.35;;
40635;SDS011;26642;55.766;37.828;2023-06-19T07:16:30;1.92;;;1.33;;
40635;SDS011;26642;55.766;37.828;2023-06-19T07:18:55;2.13;;;1.42;;
40635;SDS011;26642;55.766;37.828;2023-06-19T07:21:21;2.50;;;1.20;;
40635;SDS011;26642;55.766;37.828;2023-06-19T07:23:47;2.80;;;1.50;;
40635;SDS011;26642;55.766;37.828;2023-06-19T07:26:14;1.65;;;1.52;;
40635;SDS011;26642;55.766;37.828;2023-06-19T07:28:41;3.75;;;1.70;;
40635;SDS011;26642;55.766;37.828;2023-06-19T07:31:07;4.65;;;1.63;;
40635;SDS011;26642;55.766;37.828;2023-06-19T07:33:33;2.08;;;1.50;;
40635;SDS011;26642;55.766;37.828;2023-06-19T07:36:00;1.52;;;1.42;;
40635;SDS011;26642;55.766;37.828;2023-06-19T07:38:27;2.35;;;1.60;;
40635;SDS011;26642;55.766;37.828;2023-06-19T07:40:53;2.28;;;1.52;;
40635;SDS011;26642;55.766;37.828;2023-06-19T07:43:19;1.92;;;1.50;;
40635;SDS011;26642;55.766;37.828;2023-06-19T07:45:47;4.07;;;1.73;;
40635;SDS011;26642;55.766;37.828;2023-06-19T07:48:14;2.92;;;1.27;;
40635;SDS011;26642;55.766;37.828;2023-06-19T07:50:40;2.45;;;1.60;;
40635;SDS011;26642;55.766;37.828;2023-06-19T07:53:06;1.63;;;1.30;;
40635;SDS011;26642;55.766;37.828;2023-06-19T07:55:32;3.47;;;1.80;;
40635;SDS011;26642;55.766;37.828;2023-06-19T07:58:00;4.35;;;1.67;;
40635;SDS011;26642;55.766;37.828;2023-06-19T08:00:26;2.75;;;1.35;;
40635;SDS011;26642;55.766;37.828;2023-06-19T08:02:52;3.33;;;1.58;;
40635;SDS011;26642;55.766;37.828;2023-06-19T08:05:18;4.75;;;1.65;;
40635;SDS011;26642;55.766;37.828;2023-06-19T08:07:44;4.15;;;1.63;;
40635;SDS011;26642;55.766;37.828;2023-06-19T08:10:10;3.45;;;1.58;;
40635;SDS011;26642;55.766;37.828;2023-06-19T08:12:36;3.10;;;1.65;;
40635;SDS011;26642;55.766;37.828;2023-06-19T08:15:02;2.50;;;1.48;;
40635;SDS011;26642;55.766;37.828;2023-06-19T08:17:29;5.95;;;1.77;;
40635;SDS011;26642;55.766;37.828;2023-06-19T08:19:55;37.95;;;2.92;;
40635;SDS011;26642;55.766;37.828;2023-06-19T08:22:20;9.88;;;1.70;;
40635;SDS011;26642;55.766;37.828;2023-06-19T08:24:47;6.13;;;1.70;;
40635;SDS011;26642;55.766;37.828;2023-06-19T08:27:13;2.35;;;1.45;;
40635;SDS011;26642;55.766;37.828;2023-06-19T08:29:39;6.78;;;1.63;;
40635;SDS011;26642;55.766;37.828;2023-06-19T08:32:05;3.95;;;1.70;;
40635;SDS011;26642;55.766;37.828;2023-06-19T08:34:33;6.70;;;2.17;;
40635;SDS011;26642;55.766;37.828;2023-06-19T08:36:59;5.47;;;1.77;;
40635;SDS011;26642;55.766;37.828;2023-06-19T08:39:25;2.67;;;1.70;;
40635;SDS011;26642;55.766;37.828;2023-06-19T08:41:51;5.05;;;1.80;;
40635;SDS011;26642;55.766;37.828;2023-06-19T08:44:18;2.72;;;1.45;;
40635;SDS011;26642;55.766;37.828;2023-06-19T08:46:44;7.18;;;1.92;;
40635;SDS011;26642;55.766;37.828;2023-06-19T08:49:10;2.88;;;1.73;;
40635;SDS011;26642;55.766;37.828;2023-06-19T08:51:36;4.43;;;1.63;;
40635;SDS011;26642;55.766;37.828;2023-06-19T08:54:05;2.42;;;1.83;;
40635;SDS011;26642;55.766;37.828;2023-06-19T08:56:32;3.28;;;2.00;;
40635;SDS011;26642;55.766;37.828;2023-06-19T08:59:13;3.88;;;1.80;;
40635;SDS011;26642;55.766;37.828;2023-06-19T09:01:46;5.75;;;1.77;;
40635;SDS011;26642;55.766;37.828;2023-06-19T09:04:24;3.20;;;1.92;;
40635;SDS011;26642;55.766;37.828;2023-06-19T09:06:56;4.00;;;2.05;;
40635;SDS011;26642;55.766;37.828;2023-06-19T09:09:24;3.45;;;1.80;;
40635;SDS011;26642;55.766;37.828;2023-06-19T09:14:55;2.83;;;1.70;;
40635;SDS011;26642;55.766;37.828;2023-06-19T09:17:21;1.65;;;1.45;;
40635;SDS011;26642;55.766;37.828;2023-06-19T09:19:53;4.47;;;1.70;;
40635;SDS011;26642;55.766;37.828;2023-06-19T09:22:22;2.63;;;1.88;;
40635;SDS011;26642;55.766;37.828;2023-06-19T09:24:50;4.95;;;1.60;;
40635;SDS011;26642;55.766;37.828;2023-06-19T09:27:17;3.67;;;2.17;;
40635;SDS011;26642;55.766;37.828;2023-06-19T09:29:45;2.40;;;2.10;;
40635;SDS011;26642;55.766;37.828;2023-06-19T09:34:47;1.70;;;1.60;;
40635;SDS011;26642;55.766;37.828;2023-06-19T09:37:17;4.25;;;2.17;;
40635;SDS011;26642;55.766;37.828;2023-06-19T09:39:51;3.97;;;1.83;;
40635;SDS011;26642;55.766;37.828;2023-06-19T09:42:34;2.35;;;1.70;;
40635;SDS011;26642;55.766;37.828;2023-06-19T09:45:01;1.90;;;1.48;;
40635;SDS011;26642;55.766;37.828;2023-06-19T09:47:36;1.63;;;1.52;;
40635;SDS011;26642;55.766;37.828;2023-06-19T09:50:13;3.35;;;1.63;;
40635;SDS011;26642;55.766;37.828;2023-06-19T09:52:42;1.83;;;1.50;;
40635;SDS011;26642;55.766;37.828;2023-06-19T09:55:10;4.47;;;1.73;;
40635;SDS011;26642;55.766;37.828;2023-06-19T09:57:40;4.22;;;1.60;;
40635;SDS011;26642;55.766;37.828;2023-06-19T10:00:08;4.57;;;1.77;;
40635;SDS011;26642;55.766;37.828;2023-06-19T10:02:40;2.70;;;1.67;;
40635;SDS011;26642;55.766;37.828;2023-06-19T10:05:08;4.97;;;1.77;;
40635;SDS011;26642;55.766;37.828;2023-06-19T10:07:38;4.40;;;1.90;;
40635;SDS011;26642;55.766;37.828;2023-06-19T10:10:10;2.80;;;1.65;;
40635;SDS011;26642;55.766;37.828;2023-06-19T10:12:47;3.28;;;1.88;;
40635;SDS011;26642;55.766;37.828;2023-06-19T10:15:20;6.57;;;1.80;;
40635;SDS011;26642;55.766;37.828;2023-06-19T10:17:47;3.40;;;1.50;;
40635;SDS011;26642;55.766;37.828;2023-06-19T10:20:29;1.70;;;1.60;;
40635;SDS011;26642;55.766;37.828;2023-06-19T10:25:29;2.13;;;1.40;;
40635;SDS011;26642;55.766;37.828;2023-06-19T10:27:57;4.20;;;1.50;;
40635;SDS011;26642;55.766;37.828;2023-06-19T10:30:24;2.28;;;1.55;;
40635;SDS011;26642;55.766;37.828;2023-06-19T10:32:50;2.08;;;1.40;;
40635;SDS011;26642;55.766;37.828;2023-06-19T10:35:17;1.48;;;1.38;;
40635;SDS011;26642;55.766;37.828;2023-06-19T10:37:46;1.90;;;1.60;;
40635;SDS011;26642;55.766;37.828;2023-06-19T10:40:13;3.30;;;1.52;;
40635;SDS011;26642;55.766;37.828;2023-06-19T10:42:39;4.35;;;1.60;;
40635;SDS011;26642;55.766;37.828;2023-06-19T10:45:06;1.77;;;1.67;;
40635;SDS011;26642;55.766;37.828;2023-06-19T10:47:43;1.85;;;1.55;;
40635;SDS011;26642;55.766;37.828;2023-06-19T10:50:18;3.72;;;1.58;;
40635;SDS011;26642;55.766;37.828;2023-06-19T10:52:44;2.45;;;1.80;;
40635;SDS011;26642;55.766;37.828;2023-06-19T10:55:11;1.40;;;1.25;;
40635;SDS011;26642;55.766;37.828;2023-06-19T10:57:38;2.95;;;2.70;;
40635;SDS011;26642;55.766;37.828;2023-06-19T11:00:29;2.03;;;1.67;;
40635;SDS011;26642;55.766;37.828;2023-06-19T11:02:57;2.03;;;1.75;;
40635;SDS011;26642;55.766;37.828;2023-06-19T11:05:23;2.97;;;1.95;;
40635;SDS011;26642;55.766;37.828;2023-06-19T11:08:00;3.58;;;1.80;;
40635;SDS011;26642;55.766;37.828;2023-06-19T11:10:26;4.55;;;2.40;;
40635;SDS011;26642;55.766;37.828;2023-06-19T11:12:57;3.65;;;2.00;;
40635;SDS011;26642;55.766;37.828;2023-06-19T11:15:30;2.20;;;1.85;;
40635;SDS011;26642;55.766;37.828;2023-06-19T11:17:58;4.45;;;2.03;;
40635;SDS011;26642;55.766;37.828;2023-06-19T11:20:24;2.95;;;1.77;;
40635;SDS011;26642;55.766;37.828;2023-06-19T11:22:57;2.42;;;1.83;;
40635;SDS011;26642;55.766;37.828;2023-06-19T11:25:37;2.03;;;1.70;;
40635;SDS011;26642;55.766;37.828;2023-06-19T11:28:05;2.45;;;1.88;;
40635;SDS011;26642;55.766;37.828;2023-06-19T11:30:40;4.35;;;2.00;;
40635;SDS011;26642;55.766;37.828;2023-06-19T11:33:18;3.47;;;1.90;;
40635;SDS011;26642;55.766;37.828;2023-06-19T11:35:51;2.85;;;2.30;;
40635;SDS011;26642;55.766;37.828;2023-06-19T11:38:24;2.63;;;1.85;;
40635;SDS011;26642;55.766;37.828;2023-06-19T11:40:51;4.93;;;1.90;;
40635;SDS011;26642;55.766;37.828;2023-06-19T11:43:29;3.70;;;1.85;;
40635;SDS011;26642;55.766;37.828;2023-06-19T11:46:04;2.80;;;1.58;;
40635;SDS011;26642;55.766;37.828;2023-06-19T11:48:31;3.40;;;1.77;;
40635;SDS011;26642;55.766;37.828;2023-06-19T11:50:57;4.70;;;1.70;;
40635;SDS011;26642;55.766;37.828;2023-06-19T11:53:24;2.60;;;1.77;;
40635;SDS011;26642;55.766;37.828;2023-06-19T11:55:50;4.45;;;2.05;;
40635;SDS011;26642;55.766;37.828;2023-06-19T11:58:16;3.95;;;1.70;;
40635;SDS011;26642;55.766;37.828;2023-06-19T12:00:44;2.20;;;1.80;;
40635;SDS011;26642;55.766;37.828;2023-06-19T12:03:10;1.70;;;1.60;;
40635;SDS011;26642;55.766;37.828;2023-06-19T12:05:36;1.73;;;1.52;;
40635;SDS011;26642;55.766;37.828;2023-06-19T12:08:03;3.65;;;1.80;;
40635;SDS011;26642;55.766;37.828;2023-06-19T12:10:30;3.03;;;1.83;;
40635;SDS011;26642;55.766;37.828;2023-06-19T12:12:56;4.13;;;1.70;;
40635;SDS011;26642;55.766;37.828;2023-06-19T12:15:22;4.28;;;2.15;;
40635;SDS011;26642;55.766;37.828;2023-06-19T12:17:50;1.92;;;1.67;;
40635;SDS011;26642;55.766;37.828;2023-06-19T12:20:16;2.17;;;1.65;;
40635;SDS011;26642;55.766;37.828;2023-06-19T12:22:42;2.08;;;1.88;;
40635;SDS011;26642;55.766;37.828;2023-06-19T12:25:08;1.90;;;1.80;;
40635;SDS011;26642;55.766;37.828;2023-06-19T12:27:34;5.20;;;1.73;;
40635;SDS011;26642;55.766;37.828;2023-06-19T12:30:00;2.50;;;1.95;;
40635;SDS011;26642;55.766;37.828;2023-06-19T12:32:26;1.95;;;1.67;;
40635;SDS011;26642;55.766;37.828;2023-06-19T12:34:52;8.43;;;2.45;;
40635;SDS011;26642;55.766;37.828;2023-06-19T12:37:22;7.30;;;1.50;;
40635;SDS011;26642;55.766;37.828;2023-06-19T12:39:49;5.60;;;1.65;;
40635;SDS011;26642;55.766;37.828;2023-06-19T12:42:16;2.78;;;1.90;;
40635;SDS011;26642;55.766;37.828;2023-06-19T12:44:42;4.60;;;1.90;;
40635;SDS011;26642;55.766;37.828;2023-06-19T12:47:10;6.18;;;2.10;;
40635;SDS011;26642;55.766;37.828;2023-06-19T12:49:36;3.42;;;2.05;;
40635;SDS011;26642;55.766;37.828;2023-06-19T12:52:02;2.58;;;2.17;;
40635;SDS011;26642;55.766;37.828;2023-06-19T12:54:28;2.28;;;2.10;;
40635;SDS011;26642;55.766;37.828;2023-06-19T12:56:54;3.42;;;2.03;;
40635;SDS011;26642;55.766;37.828;2023-06-19T12:59:20;4.43;;;1.90;;
40635;SDS011;26642;55.766;37.828;2023-06-19T13:01:47;2.85;;;1.90;;
40635;SDS011;26642;55.766;37.828;2023-06-19T13:04:13;2.28;;;1.90;;
40635;SDS011;26642;55.766;37.828;2023-06-19T13:06:39;4.75;;;2.17;;
40635;SDS011;26642;55.766;37.828;2023-06-19T13:09:05;2.55;;;1.60;;
40635;SDS011;26642;55.766;37.828;2023-06-19T13:11:32;3.72;;;1.92;;
40635;SDS011;26642;55.766;37.828;2023-06-19T13:13:59;2.25;;;1.92;;
40635;SDS011;26642;55.766;37.828;2023-06-19T13:16:26;2.88;;;1.73;;
40635;SDS011;26642;55.766;37.828;2023-06-19T13:18:52;3.15;;;1.90;;
40635;SDS011;26642;55.766;37.828;2023-06-19T13:21:18;2.50;;;2.28;;
40635;SDS011;26642;55.766;37.828;2023-06-19T13:23:44;1.95;;;1.80;;
40635;SDS011;26642;55.766;37.828;2023-06-19T13:26:10;2.30;;;1.90;;
40635;SDS011;26642;55.766;37.828;2023-06-19T13:28:36;2.20;;;1.95;;
40635;SDS011;26642;55.766;37.828;2023-06-19T13:31:02;3.00;;;1.90;;
40635;SDS011;26642;55.766;37.828;2023-06-19T13:33:29;3.13;;;2.33;;
40635;SDS011;26642;55.766;37.828;2023-06-19T13:35:54;4.47;;;2.08;;
40635;SDS011;26642;55.766;37.828;2023-06-19T13:38:20;4.18;;;2.30;;
40635;SDS011;26642;55.766;37.828;2023-06-19T13:40:47;2.53;;;2.30;;
40635;SDS011;26642;55.766;37.828;2023-06-19T13:43:13;3.38;;;2.20;;
40635;SDS011;26642;55.766;37.828;2023-06-19T13:45:40;5.38;;;2.13;;
40635;SDS011;26642;55.766;37.828;2023-06-19T13:48:06;2.65;;;1.95;;
40635;SDS011;26642;55.766;37.828;2023-06-19T13:50:32;2.33;;;1.92;;
40635;SDS011;26642;55.766;37.828;2023-06-19T13:52:59;2.38;;;2.17;;
40635;SDS011;26642;55.766;37.828;2023-06-19T13:55:25;4.43;;;1.98;;
40635;SDS011;26642;55.766;37.828;2023-06-19T13:57:51;4.57;;;2.20;;
40635;SDS011;26642;55.766;37.828;2023-06-19T14:00:19;3.70;;;1.88;;
40635;SDS011;26642;55.766;37.828;2023-06-19T14:02:46;3.22;;;2.15;;
40635;SDS011;26642;55.766;37.828;2023-06-19T14:05:12;5.25;;;2.40;;
40635;SDS011;26642;55.766;37.828;2023-06-19T14:07:41;4.75;;;2.92;;
40635;SDS011;26642;55.766;37.828;2023-06-19T14:10:08;3.03;;;2.13;;
40635;SDS011;26642;55.766;37.828;2023-06-19T14:12:34;6.93;;;1.95;;
40635;SDS011;26642;55.766;37.828;2023-06-19T14:15:00;4.10;;;2.08;;
40635;SDS011;26642;55.766;37.828;2023-06-19T14:17:26;2.58;;;2.10;;
40635;SDS011;26642;55.766;37.828;2023-06-19T14:19:52;4.88;;;2.10;;
40635;SDS011;26642;55.766;37.828;2023-06-19T14:22:20;4.28;;;2.20;;
40635;SDS011;26642;55.766;37.828;2023-06-19T14:24:46;3.13;;;1.98;;
40635;SDS011;26642;55.766;37.828;2023-06-19T14:27:12;3.45;;;2.22;;
40635;SDS011;26642;55.766;37.828;2023-06-19T14:29:39;3.10;;;2.40;;
40635;SDS011;26642;55.766;37.828;2023-06-19T14:32:04;3.47;;;1.88;;
40635;SDS011;26642;55.766;37.828;2023-06-19T14:34:30;2.88;;;2.08;;
40635;SDS011;26642;55.766;37.828;2023-06-19T14:36:56;4.88;;;2.35;;
40635;SDS011;26642;55.766;37.828;2023-06-19T14:39:22;3.95;;;2.40;;
40635;SDS011;26642;55.766;37.828;2023-06-19T14:41:48;3.40;;;2.10;;
40635;SDS011;26642;55.766;37.828;2023-06-19T14:44:14;4.93;;;2.50;;
40635;SDS011;26642;55.766;37.828;2023-06-19T14:46:40;2.47;;;2.28;;
40635;SDS011;26642;55.766;37.828;2023-06-19T14:49:06;4.55;;;2.10;;